M I D A S
Marine Information and Data Acquisition System
Tripno 1560 of the Zeeleeuw from 2008-09-05 06:16:24 to 2008-09-05 16:24:15
Back to CruiseResearch ActivitiesStationsMapUnderway DataData graphs

EquipmentUnitsComment
TimeDGPSUTC
LatitudeDGPSDM.mWGS84
LongitudeDGPSDM.mWGS84
HeadingGyrodeg 
SOGDGPSknotsSpeed over ground
COGDGPSdegCourse over ground
DepthEcho soundermeters200 kHz
Missing or incorrect values are displayed as -999
Navigation data collected by the RV Zeeleeuw from 2008-09-05 06:15:47 to 2008-09-05 16:25:32
Time Latitude Longitude Heading SOG COG Depth
2008-09-05 06:16:52 51°13.632 2°55.996 110.2 3 290 -999
2008-09-05 06:17:52 51°13.659 2°55.898 115.5 4.5 296 -999
2008-09-05 06:18:52 51°13.685 2°55.799 103.5 3.5 287 -999
2008-09-05 06:19:52 51°13.69 2°55.726 81.4 1.7 268 12.5
2008-09-05 06:20:52 51°13.697 2°55.72 46.5 1.4 33 14
2008-09-05 06:21:52 51°13.749 2°55.709 333.6 5.5 331 12.5
2008-09-05 06:22:52 51°13.857 2°55.617 335 8.5 335 12.1
2008-09-05 06:23:52 51°13.986 2°55.525 336.3 8.7 336 12.1
2008-09-05 06:24:52 51°14.117 2°55.421 333.5 8.9 332 12.2
2008-09-05 06:25:52 51°14.238 2°55.282 319.1 9.1 317 11.8
2008-09-05 06:26:52 51°14.34 2°55.098 308.9 9.3 308 12.1
2008-09-05 06:27:52 51°14.43 2°54.887 306.4 10 308 11.7
2008-09-05 06:28:52 51°14.556 2°54.707 323.8 10.3 322 11
2008-09-05 06:29:52 51°14.702 2°54.56 330.1 10.3 329 10.7
2008-09-05 06:30:52 51°14.852 2°54.419 331.6 10.8 331 10.6
2008-09-05 06:31:52 51°15.011 2°54.273 330.9 11.3 331 9.5
2008-09-05 06:32:52 51°15.179 2°54.128 332.5 11.7 332 9.7
2008-09-05 06:33:52 51°15.351 2°53.979 332.3 11.7 332 10.2
2008-09-05 06:34:52 51°15.526 2°53.823 332 12.2 331 11
2008-09-05 06:35:52 51°15.704 2°53.667 332.3 12.3 331 11.6
2008-09-05 06:36:52 51°15.881 2°53.505 330.1 12.2 329 11.8
2008-09-05 06:37:52 51°16.059 2°53.345 335.3 12.3 335 12.1
2008-09-05 06:38:52 51°16.242 2°53.202 333.8 12.3 333 12.4
2008-09-05 06:39:52 51°16.426 2°53.059 336.2 12.3 336 12.4
2008-09-05 06:40:52 51°16.613 2°52.928 336 12.3 337 11.9
2008-09-05 06:41:52 51°16.798 2°52.787 334.1 12.3 334 10
2008-09-05 06:42:52 51°16.983 2°52.644 334.3 12.4 334 10.5
2008-09-05 06:43:52 51°17.167 2°52.499 333.8 12.4 333 10.4
2008-09-05 06:44:52 51°17.339 2°52.326 320 12.3 319 10.8
2008-09-05 06:45:52 51°17.488 2°52.098 315.8 12.3 315 10.9
2008-09-05 06:46:52 51°17.601 2°51.827 300.7 12.3 302 10.6
2008-09-05 06:47:52 51°17.709 2°51.549 302.1 12.4 299 10.1
2008-09-05 06:48:52 51°17.801 2°51.256 293.9 12.3 295 10.6
2008-09-05 06:49:52 51°17.894 2°50.964 297.6 12.3 299 12.1
2008-09-05 06:50:52 51°17.999 2°50.681 301.3 12.4 302 13.1
2008-09-05 06:51:52 51°18.106 2°50.4 298.8 12.4 298 13.7
2008-09-05 06:52:52 51°18.207 2°50.113 298.4 12.4 300 14.4
2008-09-05 06:53:52 51°18.304 2°49.823 293.3 12.4 293 14.1
2008-09-05 06:54:52 51°18.382 2°49.518 290.9 12.4 291 12.7
2008-09-05 06:55:52 51°18.457 2°49.212 290.5 12.4 291 10.9
2008-09-05 06:56:52 51°18.529 2°48.904 288.5 12.4 289 10.6
2008-09-05 06:57:52 51°18.589 2°48.588 286 12.4 287 11.3
2008-09-05 06:58:52 51°18.644 2°48.27 283.6 12.4 285 13.5
2008-09-05 06:59:52 51°18.699 2°47.952 284.4 12.3 286 14.9
2008-09-05 07:00:52 51°18.762 2°47.638 288 12.4 289 16.8
2008-09-05 07:01:52 51°18.825 2°47.323 287.5 12.4 289 18.7
2008-09-05 07:02:52 51°18.889 2°47.01 287.4 12.4 288 19.9
2008-09-05 07:03:52 51°18.95 2°46.697 286.2 12.3 286 21
2008-09-05 07:04:52 51°19.005 2°46.38 284.5 12.4 285 21.2
2008-09-05 07:05:52 51°19.058 2°46.062 283.7 12.3 283 20.5
2008-09-05 07:06:52 51°19.111 2°45.746 284.7 12.4 286 18.6
2008-09-05 07:07:52 51°19.164 2°45.429 283.5 12.4 284 14.7
2008-09-05 07:08:52 51°19.22 2°45.11 285.1 12.6 285 12.2
2008-09-05 07:09:52 51°19.27 2°44.787 281.5 12.6 282 15.7
2008-09-05 07:10:52 51°19.307 2°44.461 281.2 12.4 283 21.4
2008-09-05 07:11:52 51°19.351 2°44.14 281.1 12.3 284 22.4
2008-09-05 07:12:52 51°19.395 2°43.821 280.5 12.3 281 23.3
2008-09-05 07:13:52 51°19.44 2°43.502 283 12.3 284 23.8
2008-09-05 07:14:52 51°19.486 2°43.183 283.3 12.3 284 24.5
2008-09-05 07:15:52 51°19.537 2°42.866 283.3 12.3 284 24.7
2008-09-05 07:16:52 51°19.583 2°42.546 282.4 12.4 282 24.6
2008-09-05 07:17:52 51°19.631 2°42.228 282.5 12.3 283 23.7
2008-09-05 07:18:52 51°19.677 2°41.908 282 12.4 284 21.8
2008-09-05 07:19:52 51°19.72 2°41.588 280 12.3 280 21
2008-09-05 07:20:52 51°19.767 2°41.268 283.4 12.4 283 19
2008-09-05 07:21:52 51°19.817 2°40.947 283 12.4 284 20.9
2008-09-05 07:22:52 51°19.865 2°40.625 283.2 12.5 283 17.8
2008-09-05 07:23:52 51°19.909 2°40.302 280.8 12.4 284 27.7
2008-09-05 07:24:52 51°19.955 2°39.982 282.4 12.4 283 27.7
2008-09-05 07:25:52 51°20.003 2°39.661 283.1 12.4 284 28.1
2008-09-05 07:26:52 51°20.051 2°39.34 281.7 12.3 282 26.4
2008-09-05 07:27:52 51°20.097 2°39.018 283.2 12.5 283 24.3
2008-09-05 07:28:52 51°20.143 2°38.694 281.7 12.5 282 23.7
2008-09-05 07:29:52 51°20.187 2°38.369 283.2 12.5 282 23.6
2008-09-05 07:30:52 51°20.229 2°38.045 282.2 12.5 281 21.7
2008-09-05 07:31:52 51°20.275 2°37.721 282.4 12.5 281 22.9
2008-09-05 07:32:52 51°20.322 2°37.397 282.9 12.4 284 22.3
2008-09-05 07:33:52 51°20.367 2°37.073 280.6 12.4 284 22.3
2008-09-05 07:34:52 51°20.423 2°36.752 285.2 12.5 287 21
2008-09-05 07:35:52 51°20.482 2°36.433 285.6 12.5 285 20.4
2008-09-05 07:36:52 51°20.542 2°36.115 285.9 12.6 285 18.7
2008-09-05 07:37:52 51°20.599 2°35.792 286.6 12.7 287 22.2
2008-09-05 07:38:52 51°20.656 2°35.471 284.2 12.5 285 27.3
2008-09-05 07:39:52 51°20.71 2°35.149 283.7 12.5 287 28.7
2008-09-05 07:40:52 51°20.768 2°34.828 286.7 12.6 288 30.4
2008-09-05 07:41:52 51°20.828 2°34.508 285.9 12.4 289 30.9
2008-09-05 07:42:52 51°20.886 2°34.191 285.4 12.4 287 30
2008-09-05 07:43:52 51°20.944 2°33.872 284.7 12.6 286 29.9
2008-09-05 07:44:51 51°21.002 2°33.559 286 12.5 286 30.6
2008-09-05 07:45:49 51°21.059 2°33.252 284.2 12.4 287 29.9
2008-09-05 07:46:48 51°21.119 2°32.944 293 12.3 294 28.8
2008-09-05 07:47:49 51°21.259 2°32.703 328.3 12.4 329 24.5
2008-09-05 07:48:48 51°21.451 2°32.617 357 12.3 355 20
2008-09-05 07:49:49 51°21.659 2°32.569 351.9 12.4 349 21.5
2008-09-05 07:50:48 51°21.857 2°32.502 350.5 12.4 350 26.6
2008-09-05 07:51:48 51°22.058 2°32.424 351.1 12.5 346 29.9
2008-09-05 07:52:48 51°22.259 2°32.354 350.9 12.4 348 30.9
2008-09-05 07:53:49 51°22.463 2°32.273 349.2 12.3 347 30.4
2008-09-05 07:54:48 51°22.659 2°32.207 353.4 12.5 348 28.5
2008-09-05 07:55:48 51°22.86 2°32.15 352.5 12.2 351 30
2008-09-05 07:56:48 51°23.057 2°32.075 349.7 12.3 345 30.5
2008-09-05 07:57:48 51°23.254 2°31.998 349.7 12.2 344 25.6
2008-09-05 07:58:48 51°23.453 2°31.928 351.8 12.5 349 24.4
2008-09-05 07:59:48 51°23.655 2°31.856 351.3 12.4 350 22.2
2008-09-05 08:00:49 51°23.86 2°31.782 351.4 12.5 347 24.2
2008-09-05 08:01:48 51°24.056 2°31.714 349.8 12.3 347 25.9
2008-09-05 08:02:48 51°24.255 2°31.651 352.2 12.2 349 29.4
2008-09-05 08:03:48 51°24.459 2°31.612 358.5 12.2 357 28.7
2008-09-05 08:04:48 51°24.613 2°31.612 4.8 7.1 2 33
2008-09-05 08:05:49 51°24.717 2°31.614 4.1 5.8 2 32.9
2008-09-05 08:06:48 51°24.806 2°31.625 13.7 5.2 9 32.9
2008-09-05 08:07:48 51°24.889 2°31.654 19.2 5.1 13 27.4
2008-09-05 08:08:48 51°24.953 2°31.68 29.1 3 18 32.7
2008-09-05 08:09:48 51°24.99 2°31.702 44.9 1.9 23 32.6
2008-09-05 08:10:48 51°25.013 2°31.716 61.1 1.1 25 32.5
2008-09-05 08:11:48 51°25.028 2°31.724 74.4 0.8 7 32.6
2008-09-05 08:12:49 51°25.041 2°31.724 78 0.8 352 32.7
2008-09-05 08:13:49 51°25.053 2°31.717 80.9 0.9 334 32.6
2008-09-05 08:14:48 51°25.066 2°31.707 82.8 1.1 336 32.2
2008-09-05 08:15:48 51°25.08 2°31.698 84.2 0.9 341 32.5
2008-09-05 08:16:48 51°25.093 2°31.689 86.3 0.9 337 32.5
2008-09-05 08:17:48 51°25.107 2°31.677 81.2 1 335 32.1
2008-09-05 08:18:48 51°25.122 2°31.662 76.9 0.9 326 32.2
2008-09-05 08:19:49 51°25.137 2°31.646 71 1.1 326 32.1
2008-09-05 08:20:48 51°25.15 2°31.63 69.2 1.1 322 31.8
2008-09-05 08:21:48 51°25.166 2°31.637 87.8 1.3 60 31.5
2008-09-05 08:22:48 51°25.163 2°31.676 127.6 1.8 127 31.5
2008-09-05 08:23:48 51°25.123 2°31.689 177.1 3.4 188 31.9
2008-09-05 08:24:48 51°25.06 2°31.683 168.8 4.1 176 32.5
2008-09-05 08:25:48 51°24.988 2°31.697 171.4 4.4 178 32.5
2008-09-05 08:26:48 51°24.93 2°31.697 168.6 2.5 182 32.7
2008-09-05 08:27:48 51°24.901 2°31.701 146.9 1.1 163 32.7
2008-09-05 08:28:49 51°24.898 2°31.704 121.9 0.5 357 32.8
2008-09-05 08:29:48 51°24.911 2°31.698 91.2 0.9 336 32.4
2008-09-05 08:30:49 51°24.925 2°31.687 75.9 1 331 32.6
2008-09-05 08:31:49 51°24.939 2°31.671 69.4 1 322 32.2
2008-09-05 08:32:49 51°24.952 2°31.652 67.4 1.1 319 31.1
2008-09-05 08:33:48 51°24.965 2°31.631 65.3 1.1 311 31.9
2008-09-05 08:34:48 51°24.977 2°31.61 67.1 1.1 313 32.4
2008-09-05 08:35:48 51°24.989 2°31.589 66.9 1.1 312 32.5
2008-09-05 08:36:49 51°25.001 2°31.566 66.6 1.1 309 32.3
2008-09-05 08:37:49 51°25.013 2°31.543 65.4 1.1 313 32.5
2008-09-05 08:38:49 51°25.024 2°31.523 70.3 0.9 312 32.6
2008-09-05 08:39:49 51°25.036 2°31.504 71.9 1.1 312 32.7
2008-09-05 08:40:49 51°25.048 2°31.484 71.6 1.1 307 32.5
2008-09-05 08:41:48 51°25.058 2°31.463 68.5 0.9 307 32.6
2008-09-05 08:42:48 51°25.061 2°31.498 110 2.6 109 32.1
2008-09-05 08:43:49 51°25.034 2°31.555 133.3 2.6 142 32.5
2008-09-05 08:44:49 51°25.001 2°31.596 136.6 2.5 141 32.4
2008-09-05 08:45:49 51°24.976 2°31.627 121.2 1.3 130 32.2
2008-09-05 08:46:49 51°24.978 2°31.657 81 1 56 31.8
2008-09-05 08:47:49 51°24.987 2°31.654 83.1 1 298 32.1
2008-09-05 08:48:49 51°24.995 2°31.623 62.3 1.1 292 32.2
2008-09-05 08:49:49 51°25.002 2°31.595 47.4 1.1 293 32.3
2008-09-05 08:50:49 51°25.01 2°31.569 48.6 1.1 302 32.3
2008-09-05 08:51:49 51°25.019 2°31.544 56.3 0.9 298 32.5
2008-09-05 08:52:49 51°25.027 2°31.523 65.2 1 298 32.5
2008-09-05 08:53:49 51°25.035 2°31.498 67.8 0.9 299 32.7
2008-09-05 08:54:49 51°25.041 2°31.481 77.3 0.6 301 32.4
2008-09-05 08:55:49 51°25.045 2°31.483 94.2 0.5 81 32.4
2008-09-05 08:56:49 51°25.045 2°31.49 101.7 0.2 28 32.4
2008-09-05 08:57:49 51°25.047 2°31.487 105.8 0.1 273 32.3
2008-09-05 08:58:49 51°25.047 2°31.485 108.8 0.1 351 32.3
2008-09-05 08:59:49 51°25.047 2°31.486 109 0.2 120 32.3
2008-09-05 09:00:49 51°25.045 2°31.487 113.3 0.1 238 32.1
2008-09-05 09:01:49 51°25.045 2°31.484 107.8 0.2 291 32.5
2008-09-05 09:02:49 51°25.045 2°31.484 106.7 0.1 69 32.4
2008-09-05 09:03:49 51°25.045 2°31.486 108.9 -999 79 32.4
2008-09-05 09:04:49 51°25.045 2°31.485 109.5 0.2 234 32.4
2008-09-05 09:05:49 51°25.044 2°31.483 110.9 0.2 206 32.1
2008-09-05 09:06:49 51°25.041 2°31.484 110.5 0.2 174 32.5
2008-09-05 09:07:48 51°25.041 2°31.481 106 0.2 282 32.5
2008-09-05 09:08:49 51°25.039 2°31.482 108.8 0.4 175 32.5
2008-09-05 09:09:49 51°25.036 2°31.482 110.2 0.2 216 32.5
2008-09-05 09:10:49 51°25.035 2°31.479 108.8 0.1 275 32.6
2008-09-05 09:11:49 51°25.034 2°31.478 103.8 0.1 211 32.4
2008-09-05 09:12:49 51°25.032 2°31.478 104.4 0.2 156 32.7
2008-09-05 09:13:49 51°25.03 2°31.479 104.4 0.1 186 32.6
2008-09-05 09:14:48 51°25.031 2°31.476 96.8 0.2 256 32.6
2008-09-05 09:15:49 51°25.03 2°31.477 98.5 0.2 148 32.7
2008-09-05 09:16:48 51°25.028 2°31.478 97.1 0.1 310 32.4
2008-09-05 09:17:49 51°25.029 2°31.476 93.7 0.1 7 32.6
2008-09-05 09:18:49 51°25.028 2°31.477 99.3 0.1 122 32.6
2008-09-05 09:19:49 51°25.026 2°31.479 98.7 0.1 159 32.8
2008-09-05 09:20:49 51°25.025 2°31.477 94 0.2 185 32.7
2008-09-05 09:21:49 51°25.025 2°31.478 93.8 0.1 157 32.8
2008-09-05 09:22:49 51°25.023 2°31.478 95.7 0.1 149 32.7
2008-09-05 09:23:49 51°25.021 2°31.479 95.8 0.2 136 32.7
2008-09-05 09:24:49 51°25.019 2°31.479 95.6 -999 30 32.6
2008-09-05 09:25:49 51°25.018 2°31.479 90.8 0.1 133 32.6
2008-09-05 09:26:49 51°25.017 2°31.479 90.7 0.1 143 32.8
2008-09-05 09:27:49 51°25.017 2°31.478 87.7 -999 319 32.8
2008-09-05 09:28:49 51°25.017 2°31.478 89 0.1 268 32.7
2008-09-05 09:29:49 51°25.019 2°31.475 87.7 0.1 173 32.8
2008-09-05 09:30:49 51°25.016 2°31.478 92 0.2 128 32.6
2008-09-05 09:31:49 51°25.016 2°31.478 89.9 -999 98 32.6
2008-09-05 09:32:49 51°25.016 2°31.477 87.3 0.1 198 32.7
2008-09-05 09:33:49 51°25.017 2°31.478 88.5 0.2 26 32.5
2008-09-05 09:34:49 51°25.017 2°31.479 86.7 0.1 116 33
2008-09-05 09:35:49 51°25.015 2°31.478 89.9 0.1 227 32.9
2008-09-05 09:36:49 51°25.015 2°31.477 86.7 0.1 211 32.8
2008-09-05 09:37:49 51°25.015 2°31.478 88.5 -999 125 32.8
2008-09-05 09:38:49 51°25.015 2°31.478 85.5 -999 307 32.9
2008-09-05 09:39:49 51°25.015 2°31.477 87 0.1 210 32.8
2008-09-05 09:40:49 51°25.013 2°31.479 89.2 0.1 113 32.8
2008-09-05 09:41:49 51°25.013 2°31.478 86 0.1 317 32.7
2008-09-05 09:42:49 51°25.013 2°31.478 86.1 0.1 163 32.8
2008-09-05 09:43:49 51°25.013 2°31.478 85.8 -999 216 32.9
2008-09-05 09:44:49 51°25.013 2°31.478 88.6 0.1 153 32.9
2008-09-05 09:45:49 51°25.011 2°31.48 90.6 0.2 138 32.8
2008-09-05 09:46:49 51°25.009 2°31.482 87.9 0.2 159 32.9
2008-09-05 09:47:49 51°25.008 2°31.481 85.3 0.1 276 33.1
2008-09-05 09:48:49 51°25.009 2°31.479 81.3 -999 352 33
2008-09-05 09:49:49 51°25.009 2°31.48 84.4 -999 132 32.7
2008-09-05 09:50:49 51°25.009 2°31.481 85 0.1 38 32.9
2008-09-05 09:51:48 51°25.008 2°31.481 87.2 -999 7 33
2008-09-05 09:52:48 51°25.007 2°31.482 86.8 0.1 122 33.1
2008-09-05 09:53:48 51°25.006 2°31.483 86.9 -999 180 32.8
2008-09-05 09:54:48 51°25.005 2°31.484 86.5 -999 87 33
2008-09-05 09:55:48 51°25.003 2°31.488 87.4 0.4 81 32.9
2008-09-05 09:56:49 51°25.003 2°31.503 84.6 0.6 99 33
2008-09-05 09:57:49 51°25.004 2°31.518 85.1 0.5 98 32.7
2008-09-05 09:58:48 51°25.003 2°31.538 83.7 0.6 95 32.4
2008-09-05 09:59:49 51°25.002 2°31.545 85.9 0.2 228 32.5
2008-09-05 10:00:48 51°25 2°31.538 86.5 0.1 34 32.6
2008-09-05 10:01:49 51°25.004 2°31.554 76.1 0.7 65 32.6
2008-09-05 10:02:48 51°25.009 2°31.562 70.4 0.1 355 32.4
2008-09-05 10:03:48 51°25.009 2°31.552 77.2 0.5 251 32.5
2008-09-05 10:04:48 51°25.007 2°31.533 86.6 0.7 254 32.6
2008-09-05 10:05:48 51°25.005 2°31.512 88.7 1 266 32.9
2008-09-05 10:06:49 51°25.005 2°31.495 72.8 0.9 64 32.9
2008-09-05 10:07:49 51°25.053 2°31.48 333.8 5.2 309 32.5
2008-09-05 10:08:49 51°25.039 2°31.333 228.6 6.3 228 32.7
2008-09-05 10:09:48 51°24.954 2°31.284 162.4 4.1 182 34.2
2008-09-05 10:10:48 51°24.923 2°31.335 77.6 2.3 84 34
2008-09-05 10:11:49 51°24.929 2°31.417 81.6 3.4 87 33.2
2008-09-05 10:12:49 51°24.915 2°31.509 99 3.8 109 33.3
2008-09-05 10:13:49 51°24.911 2°31.609 78 3.8 82 30.6
2008-09-05 10:14:48 51°24.902 2°31.69 86.3 2.2 91 32.7
2008-09-05 10:15:49 51°24.909 2°31.734 74.9 1.5 74 32.6
2008-09-05 10:16:48 51°24.915 2°31.771 77.2 1.4 81 32.1
2008-09-05 10:17:49 51°24.915 2°31.779 86.9 1.1 256 32.1
2008-09-05 10:18:48 51°24.912 2°31.75 81.2 1.1 256 32.5
2008-09-05 10:19:49 51°24.911 2°31.722 73.4 0.9 267 32.6
2008-09-05 10:20:49 51°24.91 2°31.701 72.5 0.3 264 32.6
2008-09-05 10:21:48 51°24.908 2°31.708 87.2 0.3 145 32.5
2008-09-05 10:22:49 51°24.905 2°31.709 90.4 0.2 191 32.7
2008-09-05 10:23:48 51°24.901 2°31.709 89.7 0.3 164 32.7
2008-09-05 10:24:49 51°24.899 2°31.712 87.7 0.1 173 32.6
2008-09-05 10:25:48 51°24.896 2°31.713 87.2 0.2 177 32.5
2008-09-05 10:26:49 51°24.894 2°31.715 84.3 0.2 137 32.5
2008-09-05 10:27:48 51°24.892 2°31.718 85.7 0.1 129 32.3
2008-09-05 10:28:48 51°24.892 2°31.717 83 0.2 227 32.4
2008-09-05 10:29:48 51°24.891 2°31.716 81.2 -999 174 32.5
2008-09-05 10:30:48 51°24.89 2°31.718 81.9 0.1 132 32.4
2008-09-05 10:31:48 51°24.888 2°31.722 83.5 0.2 131 32.4
2008-09-05 10:32:48 51°24.886 2°31.725 84.1 0.2 118 32.5
2008-09-05 10:33:49 51°24.884 2°31.727 79.8 0.1 335 32.4
2008-09-05 10:34:49 51°24.884 2°31.726 76.8 0.1 209 32.4
2008-09-05 10:35:49 51°24.885 2°31.725 76.7 0.1 306 32.4
2008-09-05 10:36:49 51°24.886 2°31.725 77.2 -999 277 32.3
2008-09-05 10:37:49 51°24.887 2°31.722 75.7 0.1 285 32.5
2008-09-05 10:38:49 51°24.887 2°31.721 76.1 0.1 146 32.5
2008-09-05 10:39:49 51°24.889 2°31.72 73 0.1 347 32.5
2008-09-05 10:40:49 51°24.891 2°31.717 74.4 0.2 292 32.5
2008-09-05 10:41:48 51°24.891 2°31.716 76.1 0.1 80 32.6
2008-09-05 10:42:49 51°24.891 2°31.717 75.7 -999 149 32.5
2008-09-05 10:43:48 51°24.892 2°31.715 75.4 0.1 245 32.6
2008-09-05 10:44:49 51°24.892 2°31.715 77.8 -999 359 32.6
2008-09-05 10:45:49 51°24.893 2°31.715 74.4 0.1 10 32.5
2008-09-05 10:46:48 51°24.893 2°31.715 75 0.2 163 32.6
2008-09-05 10:47:49 51°24.892 2°31.715 77.6 0.1 159 32.5
2008-09-05 10:48:49 51°24.89 2°31.719 78.4 0.2 105 32.5
2008-09-05 10:49:49 51°24.889 2°31.72 77.2 0.1 75 32.7
2008-09-05 10:50:49 51°24.89 2°31.719 72 0.2 293 32.5
2008-09-05 10:51:49 51°24.893 2°31.715 65.9 0.3 341 32.7
2008-09-05 10:52:49 51°24.895 2°31.712 70.8 0.1 333 32.8
2008-09-05 10:53:49 51°24.896 2°31.713 73.4 -999 37 32.7
2008-09-05 10:54:49 51°24.897 2°31.713 75.4 -999 231 32.8
2008-09-05 10:55:49 51°24.898 2°31.711 75.4 -999 283 32.8
2008-09-05 10:56:49 51°24.896 2°31.712 77.3 0.1 133 32.8
2008-09-05 10:57:49 51°24.894 2°31.714 78.6 0.1 159 32.8
2008-09-05 10:58:49 51°24.892 2°31.715 75.4 0.2 180 32.8
2008-09-05 10:59:48 51°24.891 2°31.716 73.5 -999 42 32.6
2008-09-05 11:00:49 51°24.891 2°31.717 76 0.1 167 32.7
2008-09-05 11:01:49 51°24.889 2°31.719 75.4 0.1 84 32.7
2008-09-05 11:02:49 51°24.89 2°31.719 73.2 0.1 336 32.5
2008-09-05 11:03:49 51°24.891 2°31.718 72.3 0.1 328 32.7
2008-09-05 11:04:49 51°24.891 2°31.716 75.4 0.1 303 32.7
2008-09-05 11:05:49 51°24.892 2°31.716 73.1 0.1 80 32.6
2008-09-05 11:06:49 51°24.891 2°31.717 74 -999 347 32.7
2008-09-05 11:07:49 51°24.89 2°31.719 75.4 0.1 179 32.8
2008-09-05 11:08:49 51°24.888 2°31.721 73 0.1 48 32.7
2008-09-05 11:09:48 51°24.889 2°31.722 71 -999 8 32.8
2008-09-05 11:10:49 51°24.889 2°31.722 72.9 0.1 257 32.7
2008-09-05 11:11:49 51°24.89 2°31.719 70.2 0.2 311 32.9
2008-09-05 11:12:49 51°24.892 2°31.718 70.9 -999 356 32.7
2008-09-05 11:13:48 51°24.892 2°31.719 73.2 -999 55 32.7
2008-09-05 11:14:49 51°24.891 2°31.719 75.6 0.1 218 32.8
2008-09-05 11:15:49 51°24.891 2°31.718 74.1 0.1 237 32.7
2008-09-05 11:16:49 51°24.892 2°31.717 71.3 -999 30 32.8
2008-09-05 11:17:49 51°24.892 2°31.717 74.3 -999 228 32.8
2008-09-05 11:18:49 51°24.893 2°31.715 70.1 0.1 351 32.9
2008-09-05 11:19:49 51°24.895 2°31.713 69.7 0.2 318 33
2008-09-05 11:20:49 51°24.895 2°31.712 72.7 -999 204 33
2008-09-05 11:21:49 51°24.896 2°31.712 72.2 0.1 101 33
2008-09-05 11:22:48 51°24.895 2°31.713 75.1 0.1 148 33
2008-09-05 11:23:49 51°24.895 2°31.713 73.5 0.1 255 33
2008-09-05 11:24:49 51°24.894 2°31.712 76 -999 257 33.1
2008-09-05 11:25:49 51°24.894 2°31.714 75.9 0.1 102 33.1
2008-09-05 11:26:49 51°24.894 2°31.715 77.6 0.1 147 33
2008-09-05 11:27:49 51°24.893 2°31.716 79.7 0.1 191 32.9
2008-09-05 11:28:49 51°24.893 2°31.716 76.9 0.1 307 33
2008-09-05 11:29:49 51°24.894 2°31.715 78.5 -999 321 33.1
2008-09-05 11:30:49 51°24.895 2°31.716 79.1 0.1 315 33.1
2008-09-05 11:31:48 51°24.895 2°31.715 77.3 -999 300 33.2
2008-09-05 11:32:49 51°24.896 2°31.714 76.2 0.1 355 33.2
2008-09-05 11:33:49 51°24.895 2°31.715 78.1 0.2 163 33.1
2008-09-05 11:34:49 51°24.894 2°31.716 75.9 0.1 2 33
2008-09-05 11:35:49 51°24.894 2°31.716 78 -999 309 33.1
2008-09-05 11:36:49 51°24.894 2°31.715 76.9 -999 218 33.1
2008-09-05 11:37:49 51°24.894 2°31.715 76.4 0.1 90 33.2
2008-09-05 11:38:49 51°24.896 2°31.712 72.8 0.2 336 33.3
2008-09-05 11:39:49 51°24.9 2°31.71 69.5 0.2 339 33.4
2008-09-05 11:40:49 51°24.903 2°31.709 71.1 0.2 -999 33.4
2008-09-05 11:41:49 51°24.905 2°31.71 75.9 0.1 9 33.3
2008-09-05 11:42:49 51°24.907 2°31.709 79 0.1 307 33.2
2008-09-05 11:43:49 51°24.907 2°31.709 82.6 0.1 333 33.4
2008-09-05 11:44:49 51°24.908 2°31.709 80 0.2 345 33.3
2008-09-05 11:45:49 51°24.911 2°31.707 79.8 0.2 338 33.3
2008-09-05 11:46:49 51°24.912 2°31.707 83.1 0.1 54 33.3
2008-09-05 11:47:49 51°24.913 2°31.708 80.7 0.1 70 33.4
2008-09-05 11:48:49 51°24.912 2°31.709 87.6 0.1 198 33.4
2008-09-05 11:49:49 51°24.911 2°31.708 85.5 0.1 206 33.2
2008-09-05 11:50:49 51°24.912 2°31.707 82 0.1 338 33.4
2008-09-05 11:51:49 51°24.912 2°31.708 82.6 -999 23 33.4
2008-09-05 11:52:48 51°24.914 2°31.709 81 0.2 28 33.3
2008-09-05 11:53:49 51°24.914 2°31.708 85.6 0.2 311 33.5
2008-09-05 11:54:49 51°24.914 2°31.707 85.2 0.1 170 33.4
2008-09-05 11:55:49 51°24.912 2°31.708 87.4 0.2 179 33.4
2008-09-05 11:56:49 51°24.911 2°31.708 85.1 0.1 347 33.4
2008-09-05 11:57:48 51°24.912 2°31.707 81.2 0.1 310 33.3
2008-09-05 11:58:49 51°24.912 2°31.708 84.5 -999 31 33.5
2008-09-05 11:59:49 51°24.91 2°31.709 89.5 0.1 154 33.4
2008-09-05 12:00:48 51°24.909 2°31.71 88.4 0.2 161 33.5
2008-09-05 12:01:49 51°24.908 2°31.71 89.2 -999 170 33.5
2008-09-05 12:02:49 51°24.907 2°31.709 88.2 -999 209 33.5
2008-09-05 12:03:48 51°24.907 2°31.708 88.3 -999 281 33.5
2008-09-05 12:04:49 51°24.907 2°31.709 87 -999 133 33.5
2008-09-05 12:05:49 51°24.908 2°31.71 84.6 0.1 5 33.6
2008-09-05 12:06:48 51°24.91 2°31.708 83.8 0.2 304 33.4
2008-09-05 12:07:49 51°24.91 2°31.708 87.5 0.2 114 33.7
2008-09-05 12:08:49 51°24.909 2°31.709 88.5 -999 273 33.5
2008-09-05 12:09:48 51°24.908 2°31.709 87.8 0.1 189 33.6
2008-09-05 12:10:49 51°24.908 2°31.708 86.3 0.1 25 33.6
2008-09-05 12:11:49 51°24.909 2°31.708 81 0.2 354 33.5
2008-09-05 12:12:48 51°24.911 2°31.709 80.1 0.1 4 33.6
2008-09-05 12:13:49 51°24.913 2°31.708 79.7 0.2 324 33.7
2008-09-05 12:14:49 51°24.915 2°31.708 82.1 0.1 73 33.7
2008-09-05 12:15:48 51°24.915 2°31.709 87 0.2 17 33.7
2008-09-05 12:16:49 51°24.915 2°31.709 90.8 0.1 209 33.7
2008-09-05 12:17:49 51°24.914 2°31.708 92.8 0.1 181 33.8
2008-09-05 12:18:49 51°24.913 2°31.709 87.9 0.1 170 33.7
2008-09-05 12:19:49 51°24.914 2°31.71 85.7 0.2 326 33.7
2008-09-05 12:20:49 51°24.915 2°31.708 82.2 0.1 344 33.8
2008-09-05 12:21:49 51°24.916 2°31.711 86.2 0.1 104 33.8
2008-09-05 12:22:49 51°24.915 2°31.711 85.7 -999 291 33.8
2008-09-05 12:23:49 51°24.915 2°31.711 88.2 -999 4 33.8
2008-09-05 12:24:49 51°24.915 2°31.709 87.7 0.3 301 33.8
2008-09-05 12:25:49 51°24.917 2°31.707 79.4 0.2 62 34
2008-09-05 12:26:49 51°24.919 2°31.712 82.6 0.2 48 33.9
2008-09-05 12:27:49 51°24.919 2°31.713 87.5 -999 325 34
2008-09-05 12:28:49 51°24.918 2°31.709 89.6 0.2 237 33.9
2008-09-05 12:29:48 51°24.919 2°31.707 86.8 0.1 89 34.1
2008-09-05 12:30:49 51°24.919 2°31.712 89.1 0.1 115 33.8
2008-09-05 12:31:49 51°24.918 2°31.712 91.7 0.1 310 33.9
2008-09-05 12:32:48 51°24.918 2°31.709 87.8 0.1 224 34
2008-09-05 12:33:49 51°24.919 2°31.708 85.5 0.1 12 34.1
2008-09-05 12:34:49 51°24.92 2°31.71 85.3 0.1 48 34.2
2008-09-05 12:35:49 51°24.921 2°31.712 90.3 -999 106 34.2
2008-09-05 12:36:49 51°24.922 2°31.709 90.3 0.1 221 34.2
2008-09-05 12:37:49 51°24.922 2°31.71 91.8 0.1 146 34.1
2008-09-05 12:38:49 51°24.921 2°31.712 94.8 0.1 306 34.1
2008-09-05 12:39:49 51°24.923 2°31.71 88.8 0.1 8 34.2
2008-09-05 12:40:49 51°24.923 2°31.711 92.8 -999 51 34.1
2008-09-05 12:41:49 51°24.924 2°31.711 92.8 0.3 32 34.1
2008-09-05 12:42:49 51°24.925 2°31.713 92.5 0.1 35 34.2
2008-09-05 12:43:49 51°24.926 2°31.713 95.5 0.1 290 34.1
2008-09-05 12:44:49 51°24.927 2°31.712 95 0.1 271 34.1
2008-09-05 12:45:49 51°24.926 2°31.713 97 0.1 76 34.2
2008-09-05 12:46:48 51°24.927 2°31.714 96 -999 212 34.2
2008-09-05 12:47:49 51°24.928 2°31.712 94 0.1 335 34.2
2008-09-05 12:48:49 51°24.93 2°31.714 93.9 0.1 52 34.1
2008-09-05 12:49:49 51°24.93 2°31.715 96.8 0.1 329 34.1
2008-09-05 12:50:49 51°24.932 2°31.714 94.9 0.1 340 34.1
2008-09-05 12:51:49 51°24.934 2°31.716 94.2 0.3 54 34.1
2008-09-05 12:52:49 51°24.935 2°31.72 99 0.1 55 34.3
2008-09-05 12:53:49 51°24.939 2°31.719 95.5 0.2 328 34.2
2008-09-05 12:54:49 51°24.94 2°31.718 99.7 0.2 46 33.9
2008-09-05 12:55:49 51°24.939 2°31.723 106.3 0.1 105 34.2
2008-09-05 12:56:48 51°24.941 2°31.721 103.3 0.2 314 34.3
2008-09-05 12:57:49 51°24.942 2°31.72 102.2 0.2 54 34.2
2008-09-05 12:58:49 51°24.942 2°31.723 106.3 0.1 126 34.3
2008-09-05 12:59:49 51°24.942 2°31.722 109.9 0.2 286 34.2
2008-09-05 13:00:49 51°24.941 2°31.719 112.2 -999 142 34.2
2008-09-05 13:01:49 51°24.941 2°31.722 113.1 0.1 77 34.3
2008-09-05 13:02:49 51°24.938 2°31.729 113 0.6 132 34.4
2008-09-05 13:03:49 51°24.934 2°31.743 114.5 0.6 131 34.2
2008-09-05 13:04:49 51°24.93 2°31.754 116.6 0.5 124 34
2008-09-05 13:05:49 51°24.925 2°31.767 118.2 0.7 124 33.9
2008-09-05 13:06:49 51°24.92 2°31.779 121.1 0.3 113 33.8
2008-09-05 13:07:49 51°24.913 2°31.795 127.5 1.1 122 34.1
2008-09-05 13:08:49 51°24.9 2°31.81 140.9 1.6 146 34.3
2008-09-05 13:09:49 51°24.896 2°31.878 67.6 3.3 57 31.3
2008-09-05 13:10:48 51°24.952 2°31.891 333.9 4.2 327 31.3
2008-09-05 13:11:49 51°24.962 2°31.786 239.5 3.8 241 32.7
2008-09-05 13:12:49 51°24.934 2°31.731 208.2 2.1 226 34.6
2008-09-05 13:13:49 51°24.902 2°31.692 197.9 2.7 213 34.8
2008-09-05 13:14:49 51°24.862 2°31.649 209.7 2.9 221 31.5
2008-09-05 13:15:49 51°24.83 2°31.61 190.9 1.6 217 35
2008-09-05 13:16:51 51°24.843 2°31.594 210.4 0.9 335 -999
2008-09-05 13:17:51 51°24.858 2°31.588 230.6 1 357 35.2
2008-09-05 13:18:49 51°24.87 2°31.588 244.1 0.5 357 35.1
2008-09-05 13:19:49 51°24.875 2°31.587 216.4 0.2 301 34.9
2008-09-05 13:20:49 51°24.873 2°31.574 193.6 0.7 248 34.9
2008-09-05 13:21:49 51°24.869 2°31.559 182.3 0.6 235 34.9
2008-09-05 13:22:48 51°24.864 2°31.545 178.2 0.5 236 34.8
2008-09-05 13:23:49 51°24.86 2°31.536 162.9 0.2 209 34.6
2008-09-05 13:24:48 51°24.86 2°31.535 134.2 0.3 354 34.6
2008-09-05 13:25:49 51°24.864 2°31.54 116.9 0.5 74 34.8
2008-09-05 13:26:49 51°24.868 2°31.552 111 0.5 64 35.1
2008-09-05 13:27:49 51°24.872 2°31.565 116.4 0.4 74 35
2008-09-05 13:28:49 51°24.872 2°31.57 137.2 0.1 110 35.1
2008-09-05 13:29:49 51°24.872 2°31.569 155.7 0.3 272 35
2008-09-05 13:30:49 51°24.872 2°31.562 176.1 0.3 229 35.2
2008-09-05 13:31:49 51°24.867 2°31.554 177.7 0.5 228 35.1
2008-09-05 13:32:49 51°24.863 2°31.545 177 0.4 246 34.9
2008-09-05 13:33:49 51°24.86 2°31.539 167.6 0.2 247 34.8
2008-09-05 13:34:48 51°24.859 2°31.538 150.9 0.1 93 34.9
2008-09-05 13:35:49 51°24.861 2°31.541 133.5 0.3 22 34.9
2008-09-05 13:36:49 51°24.866 2°31.545 119.5 0.3 50 35.1
2008-09-05 13:37:49 51°24.87 2°31.555 119.2 0.5 62 35.2
2008-09-05 13:38:49 51°24.874 2°31.569 123.8 0.5 79 35.2
2008-09-05 13:39:49 51°24.873 2°31.579 144.9 0.2 125 35.3
2008-09-05 13:40:49 51°24.874 2°31.578 170.6 0.3 300 35.3
2008-09-05 13:41:49 51°24.872 2°31.568 187.6 0.6 201 35.4
2008-09-05 13:42:49 51°24.868 2°31.557 190.1 0.4 227 35.4
2008-09-05 13:43:49 51°24.867 2°31.551 183.7 0.1 270 35.2
2008-09-05 13:44:49 51°24.867 2°31.55 169 0.1 273 35.2
2008-09-05 13:45:49 51°24.867 2°31.551 158 0.1 70 35.4
2008-09-05 13:46:49 51°24.868 2°31.554 152.9 0.2 63 35.3
2008-09-05 13:47:49 51°24.869 2°31.557 153 0.1 356 35.4
2008-09-05 13:48:49 51°24.871 2°31.56 160.5 0.2 87 35.4
2008-09-05 13:49:49 51°24.87 2°31.564 162.4 0.1 141 35.4
2008-09-05 13:50:49 51°24.872 2°31.566 168.7 0.1 343 35.4
2008-09-05 13:51:49 51°24.872 2°31.564 176.5 0.1 242 35.5
2008-09-05 13:52:49 51°24.87 2°31.56 179.1 0.3 224 35.5
2008-09-05 13:53:49 51°24.868 2°31.555 178.1 0.2 247 35.5
2008-09-05 13:54:49 51°24.863 2°31.558 169 0.9 142 35.7
2008-09-05 13:55:48 51°24.854 2°31.569 154.3 0.6 140 35.9
2008-09-05 13:56:49 51°24.852 2°31.576 161.7 0.2 90 35.9
2008-09-05 13:57:49 51°24.844 2°31.581 167.4 1 165 35.9
2008-09-05 13:58:49 51°24.829 2°31.591 164.7 0.6 150 35.9
2008-09-05 13:59:49 51°24.829 2°31.593 172.2 0.1 193 35.9
2008-09-05 14:00:48 51°24.821 2°31.592 181.4 0.7 187 35.9
2008-09-05 14:01:49 51°24.808 2°31.59 179 0.7 177 36
2008-09-05 14:02:49 51°24.782 2°31.641 111 4.2 95 35.6
2008-09-05 14:03:49 51°24.828 2°31.721 17.4 3.9 21 30.3
2008-09-05 14:04:49 51°24.858 2°31.737 12.2 0.6 208 35.3
2008-09-05 14:05:51 51°24.853 2°31.733 5 0.1 348 35.5
2008-09-05 14:06:49 51°24.859 2°31.734 4.6 0.6 354 35.4
2008-09-05 14:07:49 51°24.872 2°31.735 10.1 0.9 8 35.4
2008-09-05 14:08:49 51°24.888 2°31.737 24.6 1 11 35.5
2008-09-05 14:09:49 51°24.901 2°31.738 44.2 0.6 339 35.7
2008-09-05 14:10:49 51°24.904 2°31.719 64.5 1 274 35.6
2008-09-05 14:11:49 51°24.908 2°31.699 93.5 0.6 300 35.5
2008-09-05 14:12:49 51°24.914 2°31.704 143.7 0.6 91 35.6
2008-09-05 14:13:49 51°24.914 2°31.72 164.7 0.4 72 35.6
2008-09-05 14:14:49 51°24.917 2°31.725 180.6 0.2 114 35.7
2008-09-05 14:15:49 51°24.915 2°31.729 179.9 0.2 33 35.7
2008-09-05 14:16:49 51°24.918 2°31.728 186.3 0.2 312 35.6
2008-09-05 14:17:49 51°24.914 2°31.729 182 0.2 144 35.8
2008-09-05 14:18:48 51°24.916 2°31.729 185 0.3 346 35.7
2008-09-05 14:19:49 51°24.917 2°31.727 187.7 0.2 175 35.6
2008-09-05 14:20:49 51°24.915 2°31.727 185.5 0.1 319 35.7
2008-09-05 14:21:49 51°24.916 2°31.726 186 0.1 193 35.8
2008-09-05 14:22:48 51°24.915 2°31.726 182.8 0.1 184 35.8
2008-09-05 14:23:49 51°24.916 2°31.725 184.5 -999 194 35.7
2008-09-05 14:24:48 51°24.915 2°31.728 180.4 0.2 89 35.7
2008-09-05 14:25:49 51°24.917 2°31.729 187.2 -999 350 35.8
2008-09-05 14:26:48 51°24.915 2°31.73 187.5 0.1 256 35.7
2008-09-05 14:27:49 51°24.916 2°31.73 185.1 0.2 131 35.8
2008-09-05 14:28:48 51°24.915 2°31.735 179.2 0.3 78 35.9
2008-09-05 14:29:49 51°24.918 2°31.739 185.7 0.2 133 35.8
2008-09-05 14:30:49 51°24.916 2°31.74 188.6 0.1 175 35.9
2008-09-05 14:31:49 51°24.917 2°31.741 189.8 0.1 311 36.1
2008-09-05 14:32:49 51°24.917 2°31.742 190.2 0.2 210 36
2008-09-05 14:33:49 51°24.916 2°31.742 188.6 0.1 134 36
2008-09-05 14:34:48 51°24.913 2°31.745 187.5 0.1 141 36
2008-09-05 14:35:49 51°24.908 2°31.747 185.3 0.3 154 35.8
2008-09-05 14:36:48 51°24.907 2°31.748 187.2 0.2 67 36.1
2008-09-05 14:37:49 51°24.908 2°31.75 189.7 0.1 309 35.9
2008-09-05 14:38:48 51°24.906 2°31.75 191.8 0.1 355 35.7
2008-09-05 14:39:49 51°24.909 2°31.748 196.5 0.1 282 36.1
2008-09-05 14:40:49 51°24.908 2°31.748 189.9 0.1 60 36
2008-09-05 14:41:49 51°24.909 2°31.75 191.3 0.1 206 36
2008-09-05 14:42:49 51°24.906 2°31.75 192.5 0.3 199 35.8
2008-09-05 14:43:49 51°24.899 2°31.754 184.3 0.7 163 35.8
2008-09-05 14:44:49 51°24.889 2°31.756 188.4 0.6 173 35.8
2008-09-05 14:45:48 51°24.883 2°31.758 193.2 0.3 153 35.8
2008-09-05 14:46:49 51°24.892 2°31.761 201.4 1.2 9 35.8
2008-09-05 14:47:49 51°24.915 2°31.766 224.3 1.6 14 35.5
2008-09-05 14:48:49 51°24.943 2°31.779 246.7 1.8 20 34.5
2008-09-05 14:49:49 51°24.97 2°31.791 250.7 1.5 3 34.5
2008-09-05 14:50:49 51°24.972 2°31.767 209.6 1.4 217 35.2
2008-09-05 14:51:49 51°24.937 2°31.79 153 3.3 130 33.8
2008-09-05 14:52:49 51°24.848 2°31.916 150.7 10 143 33.5
2008-09-05 14:53:49 51°24.699 2°32.091 151.6 11.5 145 31.7
2008-09-05 14:54:49 51°24.549 2°32.287 145.6 11.8 137 26.1
2008-09-05 14:55:48 51°24.408 2°32.501 144.7 11.9 137 23.7
2008-09-05 14:56:49 51°24.26 2°32.724 145.1 12 137 24.9
2008-09-05 14:57:49 51°24.112 2°32.938 145.6 11.9 137 26.7
2008-09-05 14:58:49 51°23.967 2°33.15 145.3 11.7 138 33.2
2008-09-05 14:59:48 51°23.828 2°33.363 143.5 11.8 137 32.7
2008-09-05 15:00:49 51°23.682 2°33.585 144.7 11.9 137 33.1
2008-09-05 15:01:49 51°23.538 2°33.799 145.5 11.8 137 33.9
2008-09-05 15:02:49 51°23.377 2°33.959 163.2 11.2 158 34.1
2008-09-05 15:03:49 51°23.203 2°34.068 165 11.3 158 33.8
2008-09-05 15:04:49 51°23.028 2°34.179 164.5 11.2 158 35.3
2008-09-05 15:05:49 51°22.855 2°34.293 164.6 11.2 158 34.5
2008-09-05 15:06:48 51°22.683 2°34.406 163.5 11.4 157 31.9
2008-09-05 15:07:49 51°22.504 2°34.521 164.7 11.4 158 25.8
2008-09-05 15:08:48 51°22.331 2°34.632 164.2 11.5 158 28.2
2008-09-05 15:09:49 51°22.152 2°34.753 163.9 11.5 157 30.2
2008-09-05 15:10:49 51°21.978 2°34.882 157.9 11.7 149 31.8
2008-09-05 15:11:49 51°21.813 2°35.044 154.5 11.7 147 32
2008-09-05 15:12:49 51°21.657 2°35.235 148 11.9 140 33.7
2008-09-05 15:13:49 51°21.511 2°35.451 140.7 12.1 133 33.8
2008-09-05 15:14:49 51°21.375 2°35.692 138.8 12.2 130 34.2
2008-09-05 15:15:49 51°21.243 2°35.938 140.8 12.2 132 33.8
2008-09-05 15:16:49 51°21.106 2°36.179 139.1 12.3 131 30.4
2008-09-05 15:17:49 51°20.972 2°36.428 138.4 12.3 131 27.7
2008-09-05 15:18:49 51°20.84 2°36.681 138.9 12.2 132 24.7
2008-09-05 15:19:48 51°20.708 2°36.924 136.7 12.3 130 24.2
2008-09-05 15:20:48 51°20.575 2°37.172 139.2 12.2 133 25.8
2008-09-05 15:21:49 51°20.444 2°37.428 135.9 12.3 129 24.1
2008-09-05 15:22:49 51°20.32 2°37.688 134.2 12.2 128 25.3
2008-09-05 15:23:49 51°20.194 2°37.944 136.2 12.2 129 25.7
2008-09-05 15:24:49 51°20.069 2°38.202 133.9 12.1 128 25.7
2008-09-05 15:25:49 51°19.947 2°38.462 132.9 12.2 127 23.7
2008-09-05 15:26:49 51°19.826 2°38.724 133.3 12.2 127 26.5
2008-09-05 15:27:48 51°19.705 2°38.977 133.1 12.2 127 29
2008-09-05 15:28:49 51°19.581 2°39.241 133.4 12.2 126 31.4
2008-09-05 15:29:49 51°19.457 2°39.492 134.8 12.1 127 31.8
2008-09-05 15:30:48 51°19.337 2°39.742 133.6 12 127 29.2
2008-09-05 15:31:49 51°19.219 2°40.005 134.4 12 127 25.5
2008-09-05 15:32:49 51°19.1 2°40.264 136 12.1 127 22.6
2008-09-05 15:33:49 51°18.98 2°40.523 133.5 12.2 123 18.3
2008-09-05 15:34:49 51°18.863 2°40.792 134.2 12.4 125 22.4
2008-09-05 15:35:49 51°18.735 2°41.049 135.7 12.5 128 17.3
2008-09-05 15:36:49 51°18.607 2°41.306 134.9 12.3 129 22.1
2008-09-05 15:37:49 51°18.48 2°41.562 134.1 12.2 127 24.7
2008-09-05 15:38:49 51°18.357 2°41.823 132.7 12.2 126 25.5
2008-09-05 15:39:49 51°18.236 2°42.085 133.7 12.2 127 26.1
2008-09-05 15:40:49 51°18.116 2°42.344 133.2 12.1 126 26.6
2008-09-05 15:41:49 51°17.996 2°42.6 135.1 12 128 26.2
2008-09-05 15:42:48 51°17.871 2°42.842 138.4 12 130 24.7
2008-09-05 15:43:49 51°17.744 2°43.094 137.5 12.1 129 16.3
2008-09-05 15:44:48 51°17.615 2°43.335 137.9 12.2 131 14.8
2008-09-05 15:45:49 51°17.483 2°43.587 134.9 12.1 130 18
2008-09-05 15:46:49 51°17.355 2°43.837 136.4 12.1 129 17.4
2008-09-05 15:47:48 51°17.23 2°44.08 134.9 12 130 18.2
2008-09-05 15:48:49 51°17.098 2°44.326 136.6 12 132 18.5
2008-09-05 15:49:49 51°16.969 2°44.567 136.4 11.9 131 17.7
2008-09-05 15:50:49 51°16.844 2°44.811 135.5 11.9 129 13.9
2008-09-05 15:51:49 51°16.716 2°45.05 136 11.9 130 14
2008-09-05 15:52:49 51°16.592 2°45.292 135.5 11.6 132 13.4
2008-09-05 15:53:49 51°16.469 2°45.536 131.7 11.9 123 13.3
2008-09-05 15:54:48 51°16.366 2°45.801 126.9 12 121 12.8
2008-09-05 15:55:49 51°16.261 2°46.079 123.1 12.1 114 12.9
2008-09-05 15:56:48 51°16.189 2°46.38 115.3 12.5 109 14.2
2008-09-05 15:57:49 51°16.119 2°46.701 117 12.7 111 16.3
2008-09-05 15:58:49 51°16.051 2°47.021 113.7 12.8 108 18.1
2008-09-05 15:59:48 51°15.985 2°47.337 114.2 12.9 108 18.8
2008-09-05 16:00:48 51°15.924 2°47.665 111.2 13 106 18.5
2008-09-05 16:01:49 51°15.859 2°47.997 111.7 12.8 107 17
2008-09-05 16:02:49 51°15.795 2°48.321 111.8 12.8 108 15.1
2008-09-05 16:03:48 51°15.731 2°48.637 112.6 12.6 108 13.8
2008-09-05 16:04:48 51°15.664 2°48.952 112.5 12.5 109 13.1
2008-09-05 16:05:49 51°15.596 2°49.273 112.3 12.6 108 14.5
2008-09-05 16:06:48 51°15.532 2°49.588 112.7 12.7 108 15.7
2008-09-05 16:07:49 51°15.466 2°49.915 111.4 12.8 106 15.5
2008-09-05 16:08:49 51°15.407 2°50.241 108.6 12.9 104 15.3
2008-09-05 16:09:49 51°15.361 2°50.574 107.3 12.9 102 15.3
2008-09-05 16:10:49 51°15.312 2°50.904 109.3 12.8 105 15.1
2008-09-05 16:11:49 51°15.231 2°51.21 121.7 12.4 116 14.9
2008-09-05 16:12:49 51°15.139 2°51.506 121.8 12.5 116 14.5
2008-09-05 16:13:48 51°15.054 2°51.804 119.4 12.6 115 14
2008-09-05 16:14:49 51°14.968 2°52.114 118.4 12.4 114 13.1
2008-09-05 16:15:48 51°14.894 2°52.417 112.5 12.6 108 12.6
2008-09-05 16:16:49 51°14.831 2°52.738 112.4 12.5 108 12.4
2008-09-05 16:17:48 51°14.763 2°53.04 112.7 12.3 109 12.1
2008-09-05 16:18:49 51°14.701 2°53.359 111.3 12.4 108 11.8
2008-09-05 16:19:48 51°14.642 2°53.668 110.8 12.5 107 11.9
2008-09-05 16:20:48 51°14.583 2°53.989 112.4 12.7 107 14.1
2008-09-05 16:21:49 51°14.518 2°54.313 112.4 12.5 108 13.6
2008-09-05 16:22:48 51°14.454 2°54.625 112.7 12.6 107 13.4
2008-09-05 16:23:49 51°14.383 2°54.943 115.4 12.5 112 12.7
2008-09-05 16:24:48 51°14.279 2°55.209 127.6 11.8 129 12.9